| time (UTC) | temp F | wind direction | speed knots | gust knots | rain 1hr in | rain 24hr in | rain mn in | humidity % | barometer mb |
| 20260502183502 | 54 | 357 | 8.7 | 13.0 | 0.00 | 0.00 | 0.00 | 50 | 1013.9 |
| 20260502182503 | 54 | 316 | 7.8 | 13.9 | 0.00 | 0.00 | 0.00 | 50 | 1014.0 |
| 20260502182003 | 53 | 3 | 9.6 | 13.9 | 0.00 | 0.00 | 0.00 | 52 | 1013.9 |
| 20260502181502 | 53 | 297 | 1.7 | 10.4 | 0.00 | 0.00 | 0.00 | 51 | 1013.9 |
| 20260502181004 | 53 | 265 | 5.2 | 13.9 | 0.00 | 0.00 | 0.00 | 53 | 1014.0 |
| 20260502180502 | 53 | 347 | 8.7 | 13.9 | 0.00 | 0.00 | 0.00 | 50 | 1014.2 |
| 20260502163503 | 50 | 356 | 4.3 | 13.0 | 0.00 | 0.00 | 0.00 | 50 | 1015.1 |
| 20260502162502 | 50 | 10 | 7.8 | 14.8 | 0.00 | 0.00 | 0.00 | 50 | 1015.1 |
| 20260502161503 | 50 | 357 | 7.0 | 11.3 | 0.00 | 0.00 | 0.00 | 53 | 1015.2 |
| 20260502161003 | 49 | 308 | 4.3 | 13.0 | 0.00 | 0.00 | 0.00 | 56 | 1015.3 |
| 20260502160502 | 48 | 341 | 7.8 | 17.4 | 0.00 | 0.00 | 0.00 | 55 | 1015.4 |
| 20260502152004 | 46 | 324 | 5.2 | 12.2 | 0.00 | 0.00 | 0.00 | 59 | 1015.5 |
| 20260502151503 | 46 | 332 | 7.0 | 12.2 | 0.00 | 0.00 | 0.00 | 61 | 1015.5 |
| 20260502151003 | 45 | 294 | 7.0 | 10.4 | 0.00 | 0.00 | 0.00 | 60 | 1015.5 |
| 20260502150503 | 46 | 348 | 7.0 | 11.3 | 0.00 | 0.00 | 0.00 | 61 | 1015.5 |
| 20260502130502 | 42 | 8 | 7.0 | 12.2 | 0.00 | 0.00 | 0.00 | 64 | 1015.4 |
| 20260502123503 | 42 | 12 | 8.7 | 13.9 | 0.00 | 0.00 | 0.00 | 65 | 1014.9 |
| 20260502123003 | 42 | 359 | 9.6 | 13.9 | 0.00 | 0.00 | 0.00 | 63 | 1015.1 |
| 20260502122503 | 42 | 359 | 7.0 | 13.9 | 0.00 | 0.00 | 0.00 | 62 | 1015.1 |
| 20260502122002 | 42 | 354 | 10.4 | 13.9 | 0.00 | 0.00 | 0.00 | 62 | 1015.1 |
| 20260502121503 | 42 | 355 | 10.4 | 13.9 | 0.00 | 0.00 | 0.00 | 62 | 1015.2 |
| 20260502121002 | 42 | 356 | 10.4 | 13.9 | 0.00 | 0.00 | 0.00 | 62 | 1015.2 |
| 20260502120503 | 42 | 337 | 6.1 | 13.0 | 0.00 | 0.00 | 0.00 | 63 | 1015.2 |
| 20260502115503 | 42 | 350 | 4.3 | 12.2 | 0.00 | 0.00 | 0.00 | 64 | 1015.1 |
| 20260502115002 | 42 | 348 | 7.0 | 12.2 | 0.00 | 0.00 | 0.00 | 64 | 1015.0 |
| 20260502114003 | 42 | 1 | 6.1 | 12.2 | 0.00 | 0.00 | 0.00 | 64 | 1015.0 |
| 20260502113502 | 42 | 359 | 8.7 | 12.2 | 0.00 | 0.00 | 0.00 | 63 | 1014.9 |
| 20260502113003 | 42 | 331 | 6.1 | 12.2 | 0.00 | 0.00 | 0.00 | 64 | 1014.8 |
| 20260502112503 | 42 | 10 | 8.7 | 12.2 | 0.00 | 0.00 | 0.00 | 63 | 1014.7 |
| 20260502112003 | 42 | 351 | 7.0 | 12.2 | 0.00 | 0.00 | 0.00 | 63 | 1014.8 |
| 20260502111002 | 42 | 20 | 7.0 | 11.3 | 0.00 | 0.00 | 0.00 | 62 | 1014.8 |
| 20260502110502 | 42 | 9 | 7.8 | 11.3 | 0.00 | 0.00 | 0.00 | 63 | 1014.7 |
| 20260502110003 | 42 | 348 | 4.3 | 10.4 | 0.00 | 0.00 | 0.00 | 65 | 1014.9 |
| 20260502105503 | 42 | 42 | 4.3 | 10.4 | 0.00 | 0.00 | 0.00 | 64 | 1014.7 |
| 20260502105003 | 41 | 8 | 5.2 | 10.4 | 0.00 | 0.00 | 0.00 | 63 | 1014.7 |
| 20260502104503 | 41 | 11 | 6.1 | 11.3 | 0.00 | 0.00 | 0.00 | 65 | 1014.7 |
| 20260502104002 | 41 | 356 | 7.8 | 11.3 | 0.00 | 0.00 | 0.00 | 64 | 1014.7 |
| 20260502103503 | 41 | 338 | 4.3 | 11.3 | 0.00 | 0.00 | 0.00 | 63 | 1014.8 |
| 20260502103003 | 42 | 328 | 4.3 | 7.8 | 0.00 | 0.00 | 0.00 | 63 | 1014.7 |
| 20260502102502 | 42 | 343 | 4.3 | 12.2 | 0.00 | 0.00 | 0.00 | 62 | 1014.9 |
| 20260502102003 | 42 | 341 | 3.5 | 12.2 | 0.00 | 0.00 | 0.00 | 62 | 1015.0 |
| 20260502101503 | 42 | 323 | 4.3 | 10.4 | 0.00 | 0.00 | 0.00 | 62 | 1014.9 |
| 20260502101003 | 42 | 2 | 5.2 | 11.3 | 0.00 | 0.00 | 0.00 | 63 | 1014.9 |
| 20260502100502 | 42 | 311 | 8.7 | 11.3 | 0.00 | 0.00 | 0.00 | 61 | 1014.9 |
| 20260502090503 | 43 | 10 | 4.3 | 12.2 | 0.00 | 0.00 | 0.00 | 69 | 1014.8 |
| 20260502071505 | 45 | 15 | 1.7 | 11.3 | 0.00 | 0.00 | 0.00 | 78 | 1014.6 |
| 20260502071003 | 45 | 20 | 2.6 | 12.2 | 0.00 | 0.00 | 0.00 | 77 | 1014.5 |
| 20260502070503 | 45 | 57 | 7.8 | 12.2 | 0.00 | 0.00 | 0.00 | 77 | 1014.6 |
| 20260502065503 | 45 | 52 | 1.7 | 10.4 | 0.00 | 0.00 | 0.00 | 77 | 1014.7 |
| 20260502065002 | 45 | 74 | 2.6 | 12.2 | 0.00 | 0.00 | 0.00 | 76 | 1014.6 |
| 20260502064503 | 45 | 53 | 4.3 | 12.2 | 0.00 | 0.00 | 0.00 | 76 | 1014.6 |
| 20260502063503 | 46 | 50 | 7.8 | 12.2 | 0.00 | 0.00 | 0.00 | 75 | 1014.6 |
| 20260502063004 | 46 | 82 | 0.9 | 10.4 | 0.00 | 0.00 | 0.00 | 75 | 1014.8 |
| 20260502062002 | 46 | 86 | 9.6 | 14.8 | 0.00 | 0.00 | 0.00 | 75 | 1014.9 |
| 20260502060503 | 46 | 30 | 3.5 | 10.4 | 0.00 | 0.00 | 0.00 | 75 | 1015.0 |
| 20260502060003 | 46 | 6 | 1.7 | 11.3 | 0.00 | 0.00 | 0.00 | 75 | 1015.1 |
| 20260502055503 | 46 | 92 | 3.5 | 11.3 | 0.00 | 0.00 | 0.00 | 74 | 1015.1 |
| 20260502055002 | 46 | 11 | 4.3 | 10.4 | 0.00 | 0.00 | 0.00 | 74 | 1015.1 |
| 20260502054503 | 47 | 82 | 0.9 | 10.4 | 0.00 | 0.00 | 0.00 | 74 | 1015.0 |
| 20260502054003 | 47 | 40 | 2.6 | 7.8 | 0.00 | 0.00 | 0.00 | 74 | 1014.8 |
| 20260502053503 | 47 | 44 | 3.5 | 11.3 | 0.00 | 0.00 | 0.00 | 74 | 1014.9 |
| 20260502053004 | 47 | 97 | 4.3 | 12.2 | 0.00 | 0.00 | 0.00 | 74 | 1015.0 |
| 20260502052003 | 47 | 82 | 4.3 | 11.3 | 0.00 | 0.00 | 0.00 | 75 | 1015.0 |
| 20260502051503 | 48 | 69 | 6.1 | 12.2 | 0.00 | 0.00 | 0.00 | 75 | 1014.9 |
| 20260502051003 | 48 | 78 | 3.5 | 12.2 | 0.00 | 0.00 | 0.00 | 76 | 1014.9 |
| 20260502050504 | 48 | 70 | 0.9 | 7.8 | 0.00 | 0.00 | 0.00 | 76 | 1014.9 |
| 20260502050003 | 48 | 346 | 2.6 | 8.7 | 0.00 | 0.00 | 0.00 | 76 | 1014.9 |
| 20260502045502 | 48 | 58 | 3.5 | 8.7 | 0.00 | 0.00 | 0.00 | 76 | 1014.9 |
| 20260502045003 | 48 | 19 | 5.2 | 7.8 | 0.00 | 0.00 | 0.00 | 77 | 1015.0 |
| 20260502044504 | 48 | 152 | 2.6 | 5.2 | 0.00 | 0.00 | 0.00 | 76 | 1015.0 |
| 20260502044003 | 48 | 0 | 0.0 | 4.3 | 0.00 | 0.00 | 0.00 | 76 | 1015.1 |
| 20260502043503 | 48 | 100 | 0.9 | 4.3 | 0.00 | 0.00 | 0.00 | 77 | 1015.0 |
| 20260502043003 | 48 | 350 | 1.7 | 8.7 | 0.00 | 0.00 | 0.00 | 76 | 1015.0 |
| 20260502042503 | 49 | 91 | 2.6 | 8.7 | 0.00 | 0.00 | 0.00 | 77 | 1014.8 |
| 20260502042003 | 49 | 74 | 2.6 | 10.4 | 0.00 | 0.00 | 0.00 | 77 | 1014.9 |
| 20260502041503 | 49 | 36 | 1.7 | 12.2 | 0.00 | 0.00 | 0.00 | 76 | 1014.8 |
| 20260502041003 | 49 | 11 | 8.7 | 12.2 | 0.00 | 0.00 | 0.00 | 76 | 1014.9 |
| 20260502040012 | 49 | 42 | 1.7 | 7.8 | 0.00 | 0.00 | 0.00 | 76 | 1014.9 |
| 20260502035504 | 49 | 166 | 0.0 | 6.1 | 0.00 | 0.00 | 0.00 | 76 | 1014.9 |
| 20260502034503 | 50 | 117 | 0.9 | 4.3 | 0.00 | 0.00 | 0.00 | 75 | 1015.0 |
| 20260502033003 | 50 | 11 | 1.7 | 13.0 | 0.00 | 0.00 | 0.00 | 74 | 1015.0 |
| 20260502032503 | 50 | 356 | 6.1 | 13.0 | 0.00 | 0.00 | 0.00 | 73 | 1014.9 |
| 20260502032003 | 50 | 355 | 1.7 | 13.0 | 0.00 | 0.00 | 0.00 | 73 | 1014.9 |
| 20260502031503 | 50 | 353 | 7.0 | 12.2 | 0.00 | 0.00 | 0.00 | 72 | 1014.8 |
| 20260502031003 | 51 | 4 | 5.2 | 11.3 | 0.00 | 0.00 | 0.00 | 72 | 1014.8 |
| 20260502030504 | 51 | 345 | 3.5 | 11.3 | 0.00 | 0.00 | 0.00 | 71 | 1014.8 |
| 20260502030003 | 51 | 317 | 7.0 | 13.9 | 0.00 | 0.00 | 0.00 | 70 | 1014.7 |
| 20260502024503 | 52 | 343 | 4.3 | 8.7 | 0.00 | 0.00 | 0.00 | 70 | 1014.8 |
| 20260502024004 | 51 | 337 | 4.3 | 8.7 | 0.00 | 0.00 | 0.00 | 71 | 1014.9 |
| 20260502023503 | 51 | 333 | 4.3 | 7.8 | 0.00 | 0.00 | 0.00 | 74 | 1014.8 |
| 20260502023003 | 51 | 220 | 0.9 | 2.6 | 0.00 | 0.00 | 0.00 | 78 | 1014.6 |
| 20260502022003 | 52 | 0 | 0.0 | 2.6 | 0.00 | 0.00 | 0.00 | 76 | 1014.3 |
| 20260502021003 | 52 | 300 | 1.7 | 4.3 | 0.00 | 0.00 | 0.00 | 76 | 1014.2 |
| 20260502020503 | 52 | 205 | 0.9 | 2.6 | 0.00 | 0.00 | 0.00 | 74 | 1013.9 |
| 20260502020004 | 52 | 206 | 1.7 | 4.3 | 0.00 | 0.00 | 0.00 | 75 | 1013.8 |
| 20260502015504 | 52 | 206 | 1.7 | 4.3 | 0.00 | 0.00 | 0.00 | 75 | 1013.7 |
| 20260502015003 | 52 | 205 | 0.9 | 4.3 | 0.00 | 0.00 | 0.00 | 74 | 1013.8 |
| 20260502014503 | 52 | 206 | 1.7 | 5.2 | 0.00 | 0.00 | 0.00 | 75 | 1013.8 |
| 20260502014003 | 52 | 204 | 3.5 | 5.2 | 0.00 | 0.00 | 0.00 | 74 | 1013.8 |
| 20260502013503 | 52 | 201 | 1.7 | 4.3 | 0.00 | 0.00 | 0.00 | 75 | 1013.8 |
| 20260502013004 | 52 | 201 | 2.6 | 4.3 | 0.00 | 0.00 | 0.00 | 75 | 1013.9 |
| 20260502012503 | 52 | 199 | 1.7 | 4.3 | 0.00 | 0.00 | 0.00 | 75 | 1013.8 |
| 20260502012003 | 52 | 198 | 1.7 | 4.3 | 0.00 | 0.00 | 0.00 | 75 | 1013.7 |
| 20260502011504 | 52 | 199 | 2.6 | 4.3 | 0.00 | 0.00 | 0.00 | 74 | 1013.6 |
| 20260502011003 | 52 | 198 | 1.7 | 4.3 | 0.00 | 0.00 | 0.00 | 74 | 1013.6 |
| 20260502010503 | 52 | 199 | 2.6 | 4.3 | 0.00 | 0.00 | 0.00 | 73 | 1013.5 |
| 20260502010003 | 52 | 200 | 1.7 | 4.3 | 0.00 | 0.00 | 0.00 | 73 | 1013.5 |
| 20260502005503 | 53 | 200 | 2.6 | 5.2 | 0.00 | 0.00 | 0.00 | 72 | 1013.4 |
| 20260502005003 | 53 | 200 | 1.7 | 7.0 | 0.00 | 0.00 | 0.00 | 71 | 1013.3 |
| 20260502004504 | 53 | 206 | 2.6 | 7.0 | 0.00 | 0.00 | 0.00 | 71 | 1013.2 |
| 20260502004003 | 53 | 203 | 2.6 | 4.3 | 0.00 | 0.00 | 0.00 | 71 | 1013.0 |
| 20260502003503 | 53 | 208 | 2.6 | 4.3 | 0.00 | 0.00 | 0.00 | 71 | 1013.1 |
| 20260502003003 | 53 | 208 | 2.6 | 4.3 | 0.00 | 0.00 | 0.00 | 70 | 1013.0 |
| 20260502002503 | 54 | 208 | 2.6 | 5.2 | 0.00 | 0.00 | 0.00 | 69 | 1012.9 |
| 20260502001503 | 54 | 210 | 3.5 | 5.2 | 0.00 | 0.00 | 0.00 | 68 | 1012.7 |
| 20260502001003 | 54 | 181 | 1.7 | 5.2 | 0.00 | 0.00 | 0.00 | 68 | 1012.7 |
| 20260502000503 | 55 | 158 | 2.6 | 5.2 | 0.00 | 0.00 | 0.00 | 66 | 1012.7 |
| 20260502000004 | 55 | 172 | 2.6 | 7.0 | 0.00 | 0.00 | 0.00 | 65 | 1012.5 |
| 20260501235503 | 56 | 163 | 2.6 | 7.0 | 0.00 | 0.00 | 0.00 | 64 | 1012.4 |
| 20260501235005 | 56 | 164 | 3.5 | 7.0 | 0.00 | 0.00 | 0.00 | 64 | 1012.2 |
| 20260501234503 | 56 | 158 | 2.6 | 7.0 | 0.00 | 0.00 | 0.00 | 63 | 1012.2 |
| 20260501234003 | 57 | 168 | 4.3 | 7.8 | 0.00 | 0.00 | 0.00 | 63 | 1012.1 |
| 20260501233503 | 57 | 169 | 3.5 | 8.7 | 0.00 | 0.00 | 0.00 | 62 | 1012.1 |
| 20260501233003 | 58 | 147 | 4.3 | 8.7 | 0.00 | 0.00 | 0.00 | 61 | 1012.1 |
| 20260501232503 | 58 | 176 | 5.2 | 7.8 | 0.00 | 0.00 | 0.00 | 59 | 1012.0 |
| 20260501232003 | 58 | 166 | 4.3 | 7.8 | 0.00 | 0.00 | 0.00 | 59 | 1012.1 |
| 20260501231503 | 59 | 198 | 4.3 | 7.8 | 0.00 | 0.00 | 0.00 | 58 | 1012.2 |
| 20260501231003 | 59 | 161 | 3.5 | 10.4 | 0.00 | 0.00 | 0.00 | 57 | 1012.1 |
| 20260501230503 | 60 | 177 | 3.5 | 10.4 | 0.00 | 0.00 | 0.00 | 56 | 1012.1 |
| 20260501225504 | 61 | 222 | 4.3 | 7.8 | 0.00 | 0.00 | 0.00 | 53 | 1012.0 |
| 20260501225003 | 60 | 197 | 4.3 | 7.8 | 0.00 | 0.00 | 0.00 | 52 | 1012.1 |
| 20260501224005 | 60 | 215 | 6.1 | 8.7 | 0.00 | 0.00 | 0.00 | 52 | 1012.1 |
| 20260501223503 | 61 | 230 | 2.6 | 6.1 | 0.00 | 0.00 | 0.00 | 53 | 1012.2 |
| 20260501223004 | 61 | 248 | 3.5 | 12.2 | 0.00 | 0.00 | 0.00 | 52 | 1012.1 |
| 20260501222004 | 61 | 253 | 3.5 | 12.2 | 0.00 | 0.00 | 0.00 | 51 | 1012.2 |
| 20260501221003 | 61 | 240 | 4.3 | 10.4 | 0.00 | 0.00 | 0.00 | 51 | 1012.3 |
| 20260501220504 | 61 | 241 | 5.2 | 13.0 | 0.00 | 0.00 | 0.00 | 49 | 1012.3 |
| 20260501220004 | 62 | 286 | 7.8 | 13.0 | 0.00 | 0.00 | 0.00 | 47 | 1012.3 |
| 20260501214504 | 62 | 163 | 2.6 | 7.8 | 0.00 | 0.00 | 0.00 | 55 | 1012.4 |
| 20260501214003 | 62 | 176 | 4.3 | 13.0 | 0.00 | 0.00 | 0.00 | 53 | 1012.5 |
| 20260501213503 | 62 | 171 | 4.3 | 13.0 | 0.00 | 0.00 | 0.00 | 52 | 1012.5 |
| 20260501213003 | 62 | 143 | 7.0 | 12.2 | 0.00 | 0.00 | 0.00 | 52 | 1012.5 |
| 20260501212504 | 62 | 172 | 3.5 | 12.2 | 0.00 | 0.00 | 0.00 | 53 | 1012.6 |
| 20260501212003 | 61 | 237 | 9.6 | 15.6 | 0.00 | 0.00 | 0.00 | 55 | 1012.5 |
| 20260501211504 | 61 | 172 | 5.2 | 15.6 | 0.00 | 0.00 | 0.00 | 53 | 1012.5 |
| 20260501211003 | 61 | 218 | 8.7 | 13.0 | 0.00 | 0.00 | 0.00 | 54 | 1012.4 |
| 20260501210502 | 62 | 210 | 5.2 | 13.9 | 0.00 | 0.00 | 0.00 | 54 | 1012.5 |
| 20260501205503 | 62 | 203 | 6.1 | 13.0 | 0.00 | 0.00 | 0.00 | 54 | 1012.6 |
| 20260501205003 | 62 | 174 | 4.3 | 14.8 | 0.00 | 0.00 | 0.00 | 55 | 1012.6 |
| 20260501204504 | 61 | 173 | 4.3 | 14.8 | 0.00 | 0.00 | 0.00 | 56 | 1012.5 |
| 20260501204004 | 60 | 168 | 7.8 | 12.2 | 0.00 | 0.00 | 0.00 | 55 | 1012.7 |
| 20260501203503 | 60 | 174 | 4.3 | 11.3 | 0.00 | 0.00 | 0.00 | 53 | 1012.7 |
| 20260501202503 | 60 | 168 | 4.3 | 11.3 | 0.00 | 0.00 | 0.00 | 55 | 1012.9 |
| 20260501202003 | 60 | 203 | 3.5 | 13.9 | 0.00 | 0.00 | 0.00 | 54 | 1012.8 |
| 20260501201503 | 60 | 146 | 6.1 | 13.9 | 0.00 | 0.00 | 0.00 | 55 | 1012.9 |
| 20260501201004 | 59 | 193 | 5.2 | 14.8 | 0.00 | 0.00 | 0.00 | 59 | 1013.0 |
| 20260501200503 | 59 | 169 | 3.5 | 14.8 | 0.00 | 0.00 | 0.00 | 55 | 1013.0 |
| 20260501200004 | 59 | 238 | 2.6 | 11.3 | 0.00 | 0.00 | 0.00 | 57 | 1013.1 |
| 20260501195503 | 59 | 168 | 3.5 | 10.4 | 0.00 | 0.00 | 0.00 | 55 | 1013.1 |
| 20260501195004 | 59 | 143 | 3.5 | 12.2 | 0.00 | 0.00 | 0.00 | 54 | 1013.2 |
| 20260501194003 | 60 | 171 | 5.2 | 14.8 | 0.00 | 0.00 | 0.00 | 52 | 1013.6 |
| 20260501193503 | 61 | 224 | 4.3 | 13.9 | 0.00 | 0.00 | 0.00 | 54 | 1013.7 |
| 20260501193003 | 61 | 147 | 5.2 | 13.9 | 0.00 | 0.00 | 0.00 | 50 | 1013.7 |
| 20260501192003 | 60 | 203 | 4.3 | 11.3 | 0.00 | 0.00 | 0.00 | 51 | 1013.9 |
| 20260501191503 | 60 | 163 | 4.3 | 12.2 | 0.00 | 0.00 | 0.00 | 50 | 1013.9 |
| 20260501191003 | 60 | 208 | 7.0 | 15.6 | 0.00 | 0.00 | 0.00 | 52 | 1014.1 |
| 20260501190003 | 60 | 161 | 7.8 | 14.8 | 0.00 | 0.00 | 0.00 | 52 | 1014.2 |
| 20260501185003 | 60 | 191 | 5.2 | 11.3 | 0.00 | 0.00 | 0.00 | 54 | 1014.4 |
| 20260501184504 | 60 | 194 | 1.7 | 11.3 | 0.00 | 0.00 | 0.00 | 50 | 1014.4 |